Terminal Aerodrome Forecast
Issued by NWS

Home | Current Version | Previous Version | Text Only | Print | Product List | Glossary On
Versions: 1 2 3 4 5 6 7 8 9 10 11 12 13 14 15 16 17 18 19 20 21 22 23 24 25 26 27
000
FTUS45 KBOU 092339
TAFAPA
TAF
KAPA 092339Z 1000/1024 10007KT P6SM FEW070 SCT150 BKN220
     FM100200 15007KT P6SM BKN220
     FM100400 20008KT P6SM SCT200
     FM101700 15007KT P6SM SCT120 BKN220=

USA.gov is the U.S. government's official web portal to all federal, state and local government web resources and services.